createdAt,value
2022-08-08T00:00:49.988Z,1013.2
2022-08-08T00:05:03.242Z,1013.16
2022-08-08T00:10:04.274Z,1013.23
2022-08-08T00:15:05.128Z,1013.5
2022-08-08T00:20:04.360Z,1013.6
2022-08-08T00:25:03.260Z,1013.74
2022-08-08T00:30:05.056Z,1013.77
2022-08-08T00:35:04.026Z,1013.84
2022-08-08T00:41:08.437Z,1013.92
2022-08-08T00:45:03.389Z,1013.95
2022-08-08T00:50:04.196Z,1014.03
2022-08-08T00:55:03.236Z,1014.16
2022-08-08T01:00:04.976Z,1014.27
2022-08-08T01:05:03.767Z,1014.28
2022-08-08T01:10:06.116Z,1014.38
2022-08-08T01:15:03.175Z,1014.38
2022-08-08T01:20:04.543Z,1014.38
2022-08-08T01:25:03.211Z,1014.42
2022-08-08T01:30:04.681Z,1014.44
2022-08-08T01:35:10.984Z,1014.5
2022-08-08T01:40:04.293Z,1014.57
2022-08-08T01:45:03.168Z,1014.69
2022-08-08T01:50:04.368Z,1014.79
2022-08-08T01:55:18.105Z,1014.91
2022-08-08T02:00:06.348Z,1015.02
2022-08-08T02:05:03.228Z,1014.97
2022-08-08T02:10:11.139Z,1014.89
2022-08-08T02:15:03.226Z,1014.93
2022-08-08T02:20:08.205Z,1014.9
2022-08-08T02:25:07.333Z,1015.06
2022-08-08T02:30:05.443Z,1015.08
2022-08-08T02:35:06.548Z,1015.12
2022-08-08T02:40:04.329Z,1015.14
2022-08-08T02:45:03.659Z,1015.12
2022-08-08T02:50:12.585Z,1015.1
2022-08-08T02:55:03.362Z,1015.17
2022-08-08T03:00:15.768Z,1015.08
2022-08-08T03:05:09.111Z,1015.1
2022-08-08T03:10:04.332Z,1014.95
2022-08-08T03:15:55.681Z,1014.9
2022-08-08T03:20:04.291Z,1014.9
2022-08-08T03:25:03.216Z,1014.94
2022-08-08T03:30:05.297Z,1014.93
2022-08-08T03:35:03.135Z,1014.84
2022-08-08T03:40:04.456Z,1014.74
2022-08-08T03:46:02.899Z,1014.79
2022-08-08T03:50:04.308Z,1014.77
2022-08-08T03:55:11.029Z,1014.82
2022-08-08T04:00:08.238Z,1014.77
2022-08-08T04:05:04.289Z,1014.75
2022-08-08T04:10:07.633Z,1014.6
2022-08-08T04:15:03.257Z,1014.64
2022-08-08T04:20:04.792Z,1014.68
2022-08-08T04:25:03.168Z,1014.64
2022-08-08T04:30:17.062Z,1014.64
2022-08-08T04:35:03.114Z,1014.58
2022-08-08T04:40:07.711Z,1014.48
2022-08-08T04:45:03.291Z,1014.54
2022-08-08T04:50:04.853Z,1014.49
2022-08-08T04:55:04.320Z,1014.43
2022-08-08T05:00:04.965Z,1014.48
2022-08-08T05:05:03.191Z,1014.43
2022-08-08T05:10:04.370Z,1014.4
2022-08-08T05:15:03.271Z,1014.37
2022-08-08T05:20:13.017Z,1014.33
2022-08-08T05:25:03.167Z,1014.17
2022-08-08T05:30:05.065Z,1014.16
2022-08-08T05:35:04.879Z,1014.11
2022-08-08T05:40:04.194Z,1014.15
2022-08-08T05:45:10.126Z,1014.24
2022-08-08T05:50:04.223Z,1014.26
2022-08-08T05:55:07.339Z,1014.17
2022-08-08T06:00:19.620Z,1014.16
2022-08-08T06:05:06.643Z,1014.22
2022-08-08T06:10:06.411Z,1014.2
2022-08-08T06:15:03.752Z,1014.15
2022-08-08T06:20:04.330Z,1014.1
2022-08-08T06:25:03.194Z,1014.15
2022-08-08T06:30:05.534Z,1014.15
2022-08-08T06:35:12.465Z,1014.08
2022-08-08T06:40:04.308Z,1013.96
2022-08-08T06:45:05.351Z,1013.97
2022-08-08T06:50:04.423Z,1014.13
2022-08-08T06:55:03.181Z,1014.14
2022-08-08T07:00:10.986Z,1014.08
2022-08-08T07:05:04.705Z,1014.1
2022-08-08T07:10:08.070Z,1014.11
2022-08-08T07:15:04.315Z,1014.08
2022-08-08T07:20:04.300Z,1014.1
2022-08-08T07:25:03.253Z,1014.09
2022-08-08T07:30:05.896Z,1014.12
2022-08-08T07:35:03.208Z,1014.22
2022-08-08T07:40:04.315Z,1014.24
2022-08-08T07:45:03.169Z,1014.17
2022-08-08T07:50:05.428Z,1014.24
2022-08-08T07:55:03.269Z,1014.23
2022-08-08T08:00:04.522Z,1014.33
2022-08-08T08:05:03.527Z,1014.41
2022-08-08T08:10:12.313Z,1014.43
2022-08-08T08:15:04.481Z,1014.37
2022-08-08T08:20:04.277Z,1014.36
2022-08-08T08:25:07.886Z,1014.3
2022-08-08T08:30:10.272Z,1014.33
2022-08-08T08:35:03.455Z,1014.34
2022-08-08T08:40:04.314Z,1014.36
2022-08-08T08:45:10.104Z,1014.32
2022-08-08T08:50:04.237Z,1014.4
2022-08-08T08:55:03.374Z,1014.49
2022-08-08T09:00:07.014Z,1014.62
2022-08-08T09:05:03.276Z,1014.7
2022-08-08T09:10:04.681Z,1014.82
2022-08-08T09:15:03.140Z,1014.87
2022-08-08T09:21:55.129Z,1014.88
2022-08-08T09:25:03.850Z,1014.87
2022-08-08T09:30:04.705Z,1014.96
2022-08-08T09:35:07.888Z,1015.1
2022-08-08T09:40:04.295Z,1015.23
2022-08-08T09:45:03.753Z,1015.4
2022-08-08T09:50:13.845Z,1015.44
2022-08-08T09:55:03.363Z,1015.48
2022-08-08T10:00:32.870Z,1015.59
2022-08-08T10:05:07.182Z,1015.65
2022-08-08T10:10:06.898Z,1015.75
2022-08-08T10:15:03.183Z,1015.87
2022-08-08T10:20:04.419Z,1015.97
2022-08-08T10:25:03.194Z,1015.95
2022-08-08T10:30:06.241Z,1016.02
2022-08-08T10:35:03.114Z,1016.21
2022-08-08T10:40:07.102Z,1016.28
2022-08-08T10:45:08.253Z,1016.39
2022-08-08T10:50:04.755Z,1016.43
2022-08-08T10:55:05.306Z,1016.34
2022-08-08T11:00:05.615Z,1016.36
2022-08-08T11:05:05.376Z,1016.47
2022-08-08T11:10:05.264Z,1016.55
2022-08-08T11:15:03.216Z,1016.69
2022-08-08T11:20:07.312Z,1016.7
2022-08-08T11:25:03.332Z,1016.65
2022-08-08T11:30:19.746Z,1016.74
2022-08-08T11:35:11.460Z,1016.83
2022-08-08T11:40:04.258Z,1016.8
2022-08-08T11:45:03.184Z,1016.75
2022-08-08T11:50:04.245Z,1016.8
2022-08-08T11:55:03.423Z,1016.89
2022-08-08T12:00:06.576Z,1017.04
2022-08-08T12:05:03.076Z,1017.15
2022-08-08T12:10:08.701Z,1017.15
2022-08-08T12:15:03.230Z,1017.23
2022-08-08T12:20:04.353Z,1017.31
2022-08-08T12:25:03.167Z,1017.35
2022-08-08T12:30:15.798Z,1017.45
2022-08-08T12:35:05.061Z,1017.48
2022-08-08T12:40:04.270Z,1017.5
2022-08-08T12:45:03.292Z,1017.56
2022-08-08T12:50:07.334Z,1017.6
2022-08-08T12:55:03.174Z,1017.7
2022-08-08T13:00:12.351Z,1017.74
2022-08-08T13:05:05.696Z,1017.74
2022-08-08T13:10:05.954Z,1017.77
2022-08-08T13:15:06.382Z,1017.8
2022-08-08T13:20:08.560Z,1017.77
2022-08-08T13:25:03.206Z,1017.77
2022-08-08T13:30:05.004Z,1017.74
2022-08-08T13:35:04.265Z,1017.72
2022-08-08T13:40:04.223Z,1017.67
2022-08-08T13:45:04.450Z,1017.7
2022-08-08T13:50:34.089Z,1017.65
2022-08-08T13:55:03.155Z,1017.56
2022-08-08T14:00:04.966Z,1017.48
2022-08-08T14:05:04.759Z,1017.4
2022-08-08T14:10:12.155Z,1017.26
2022-08-08T14:15:03.381Z,1017.19
2022-08-08T14:20:05.986Z,1017.1
2022-08-08T14:25:03.140Z,1016.92
2022-08-08T14:30:08.199Z,1016.92
2022-08-08T14:35:04.282Z,1016.88
2022-08-08T14:40:06.233Z,1016.74
2022-08-08T14:45:03.165Z,1016.69
2022-08-08T14:50:07.182Z,1016.66
2022-08-08T14:55:03.204Z,1016.69
2022-08-08T15:00:06.437Z,1016.71
2022-08-08T15:05:07.838Z,1016.71
2022-08-08T15:10:09.972Z,1016.57
2022-08-08T15:15:06.627Z,1016.42
2022-08-08T15:20:04.255Z,1016.27
2022-08-08T15:25:03.135Z,1016.12
2022-08-08T15:30:05.564Z,1016.1
2022-08-08T15:35:04.352Z,1016.08
2022-08-08T15:40:04.368Z,1016.06
2022-08-08T15:45:03.268Z,1015.93
2022-08-08T15:50:04.344Z,1015.73
2022-08-08T15:55:03.150Z,1015.59
2022-08-08T16:00:18.183Z,1015.48
2022-08-08T16:05:03.979Z,1015.45
2022-08-08T16:13:06.511Z,1015.38
2022-08-08T16:15:03.189Z,1015.25
2022-08-08T16:20:04.338Z,1015.05
2022-08-08T16:25:03.805Z,1014.99
2022-08-08T16:30:08.010Z,1014.88
2022-08-08T16:35:03.246Z,1014.81
2022-08-08T16:40:04.485Z,1014.77
2022-08-08T16:45:11.292Z,1014.68
2022-08-08T16:50:04.374Z,1014.6
2022-08-08T16:55:23.386Z,1014.54
2022-08-08T17:00:08.726Z,1014.47
2022-08-08T17:05:03.390Z,1014.38
2022-08-08T17:10:04.265Z,1014.34
2022-08-08T17:15:04.164Z,1014.17
2022-08-08T17:20:04.291Z,1013.99
2022-08-08T17:25:03.440Z,1013.88
2022-08-08T17:30:08.309Z,1013.9
2022-08-08T17:35:27.776Z,1013.84
2022-08-08T17:40:12.419Z,1013.82
2022-08-08T17:45:03.159Z,1013.76
2022-08-08T17:50:04.464Z,1013.66
2022-08-08T17:55:05.029Z,1013.66
2022-08-08T18:00:10.384Z,1013.53
2022-08-08T18:05:04.629Z,1013.52
2022-08-08T18:10:04.453Z,1013.6
2022-08-08T18:15:03.149Z,1013.54
2022-08-08T18:20:37.532Z,1013.54
2022-08-08T18:25:03.280Z,1013.6
2022-08-08T18:30:04.628Z,1013.48
2022-08-08T18:35:03.233Z,1013.47
2022-08-08T18:40:04.416Z,1013.53
2022-08-08T18:45:09.039Z,1013.64
2022-08-08T18:50:04.468Z,1013.55
2022-08-08T18:55:09.401Z,1013.56
2022-08-08T19:00:07.516Z,1013.46
2022-08-08T19:05:05.207Z,1013.38
2022-08-08T19:10:14.023Z,1013.4
2022-08-08T19:15:03.191Z,1013.57
2022-08-08T19:20:04.234Z,1013.72
2022-08-08T19:25:30.555Z,1013.81
2022-08-08T19:30:09.096Z,1013.78
2022-08-08T19:35:05.521Z,1013.71
2022-08-08T19:40:04.224Z,1013.7
2022-08-08T19:45:05.066Z,1013.8
2022-08-08T19:50:04.267Z,1013.9
2022-08-08T19:55:05.049Z,1013.93
2022-08-08T20:00:04.329Z,1013.94
2022-08-08T20:05:03.146Z,1013.97
2022-08-08T20:10:04.288Z,1014.08
2022-08-08T20:15:09.866Z,1014.2
2022-08-08T20:20:04.191Z,1014.19
2022-08-08T20:25:03.102Z,1014.27
2022-08-08T20:30:05.234Z,1014.27
2022-08-08T20:35:03.189Z,1014.31
2022-08-08T20:40:04.435Z,1014.31
2022-08-08T20:45:03.176Z,1014.33
2022-08-08T20:50:04.240Z,1014.48
2022-08-08T20:55:07.566Z,1014.48
2022-08-08T21:00:05.228Z,1014.51
2022-08-08T21:05:03.218Z,1014.51
2022-08-08T21:10:08.287Z,1014.54
2022-08-08T21:15:06.807Z,1014.58
2022-08-08T21:20:04.190Z,1014.58
2022-08-08T21:25:03.246Z,1014.47
2022-08-08T21:30:09.566Z,1014.52
2022-08-08T21:36:13.412Z,1014.58
2022-08-08T21:40:05.249Z,1014.66
2022-08-08T21:45:21.085Z,1014.82
2022-08-08T21:50:04.356Z,1014.88
2022-08-08T21:55:04.092Z,1014.92
2022-08-08T22:00:05.236Z,1015.02
2022-08-08T22:05:03.200Z,1015.18
2022-08-08T22:10:04.415Z,1015.18
2022-08-08T22:15:04.259Z,1015.19
2022-08-08T22:20:10.272Z,1015.43
2022-08-08T22:25:03.352Z,1015.46
2022-08-08T22:30:05.787Z,1015.57
2022-08-08T22:35:03.603Z,1015.77
2022-08-08T22:40:04.562Z,1015.75
2022-08-08T22:45:03.215Z,1015.77
2022-08-08T22:50:04.368Z,1015.89
2022-08-08T22:55:04.596Z,1015.98
2022-08-08T23:00:05.194Z,1015.96
2022-08-08T23:05:05.031Z,1016.14
2022-08-08T23:10:04.250Z,1016.23
2022-08-08T23:15:10.545Z,1016.35
2022-08-08T23:20:04.371Z,1016.31
2022-08-08T23:25:03.291Z,1016.31
2022-08-08T23:30:04.488Z,1016.44
2022-08-08T23:35:07.952Z,1016.69
2022-08-08T23:40:04.628Z,1016.8
2022-08-08T23:45:03.475Z,1016.89
2022-08-08T23:50:05.435Z,1017.02
2022-08-08T23:55:07.788Z,1017.0
